sensor_id;sensor_type;location;lat;lon;timestamp;temperature;humidity
10451;DHT22;5273;51.290;6.918;2023-09-30T00:01:14;13.60;99.90
10451;DHT22;5273;51.290;6.918;2023-09-30T00:03:41;13.50;99.90
10451;DHT22;5273;51.290;6.918;2023-09-30T00:06:08;13.50;99.90
10451;DHT22;5273;51.290;6.918;2023-09-30T00:08:35;13.40;99.90
10451;DHT22;5273;51.290;6.918;2023-09-30T00:11:05;13.40;99.90
10451;DHT22;5273;51.290;6.918;2023-09-30T00:13:32;13.40;99.90
10451;DHT22;5273;51.290;6.918;2023-09-30T00:15:59;13.30;99.90
10451;DHT22;5273;51.290;6.918;2023-09-30T00:18:26;13.40;99.90
10451;DHT22;5273;51.290;6.918;2023-09-30T00:20:53;13.20;99.90
10451;DHT22;5273;51.290;6.918;2023-09-30T00:23:19;13.20;99.90
10451;DHT22;5273;51.290;6.918;2023-09-30T00:25:47;13.20;99.90
10451;DHT22;5273;51.290;6.918;2023-09-30T00:28:15;13.10;99.90
10451;DHT22;5273;51.290;6.918;2023-09-30T00:30:42;13.10;99.90
10451;DHT22;5273;51.290;6.918;2023-09-30T00:33:12;13.10;99.90
10451;DHT22;5273;51.290;6.918;2023-09-30T00:35:39;13.10;99.90
10451;DHT22;5273;51.290;6.918;2023-09-30T00:38:06;13.00;99.90
10451;DHT22;5273;51.290;6.918;2023-09-30T00:40:33;13.00;99.90
10451;DHT22;5273;51.290;6.918;2023-09-30T00:43:01;12.90;99.90
10451;DHT22;5273;51.290;6.918;2023-09-30T00:45:30;12.90;99.90
10451;DHT22;5273;51.290;6.918;2023-09-30T00:47:57;13.00;99.90
10451;DHT22;5273;51.290;6.918;2023-09-30T00:50:24;12.90;99.90
10451;DHT22;5273;51.290;6.918;2023-09-30T00:52:52;13.00;99.90
10451;DHT22;5273;51.290;6.918;2023-09-30T00:55:19;12.90;99.90
10451;DHT22;5273;51.290;6.918;2023-09-30T00:57:46;12.90;99.90
10451;DHT22;5273;51.290;6.918;2023-09-30T01:00:14;12.90;99.90
10451;DHT22;5273;51.290;6.918;2023-09-30T01:02:43;13.00;99.90
10451;DHT22;5273;51.290;6.918;2023-09-30T01:05:10;12.90;99.90
10451;DHT22;5273;51.290;6.918;2023-09-30T01:07:37;12.90;99.90
10451;DHT22;5273;51.290;6.918;2023-09-30T01:10:05;13.00;99.90
10451;DHT22;5273;51.290;6.918;2023-09-30T01:12:32;12.90;99.90
10451;DHT22;5273;51.290;6.918;2023-09-30T01:14:59;13.00;99.90
10451;DHT22;5273;51.290;6.918;2023-09-30T01:17:26;13.00;99.90
10451;DHT22;5273;51.290;6.918;2023-09-30T01:19:57;13.00;99.90
10451;DHT22;5273;51.290;6.918;2023-09-30T01:22:26;12.90;99.90
10451;DHT22;5273;51.290;6.918;2023-09-30T01:24:55;12.90;99.90
10451;DHT22;5273;51.290;6.918;2023-09-30T01:27:22;12.90;99.90
10451;DHT22;5273;51.290;6.918;2023-09-30T01:29:49;12.80;99.90
10451;DHT22;5273;51.290;6.918;2023-09-30T01:32:16;12.80;99.90
10451;DHT22;5273;51.290;6.918;2023-09-30T01:34:42;12.80;99.90
10451;DHT22;5273;51.290;6.918;2023-09-30T01:37:09;12.90;99.90
10451;DHT22;5273;51.290;6.918;2023-09-30T01:39:38;13.00;99.90
10451;DHT22;5273;51.290;6.918;2023-09-30T01:42:04;13.00;99.90
10451;DHT22;5273;51.290;6.918;2023-09-30T01:44:31;13.10;99.90
10451;DHT22;5273;51.290;6.918;2023-09-30T01:46:59;13.00;99.90
10451;DHT22;5273;51.290;6.918;2023-09-30T01:49:26;13.00;99.90
10451;DHT22;5273;51.290;6.918;2023-09-30T01:51:53;13.00;99.90
10451;DHT22;5273;51.290;6.918;2023-09-30T01:54:20;12.90;99.90
10451;DHT22;5273;51.290;6.918;2023-09-30T01:56:48;13.00;99.90
10451;DHT22;5273;51.290;6.918;2023-09-30T01:59:15;12.90;99.90
10451;DHT22;5273;51.290;6.918;2023-09-30T02:01:42;12.80;99.90
10451;DHT22;5273;51.290;6.918;2023-09-30T02:04:09;12.90;99.90
10451;DHT22;5273;51.290;6.918;2023-09-30T02:06:35;12.80;99.90
10451;DHT22;5273;51.290;6.918;2023-09-30T02:09:02;12.90;99.90
10451;DHT22;5273;51.290;6.918;2023-09-30T02:11:30;12.90;99.90
10451;DHT22;5273;51.290;6.918;2023-09-30T02:13:58;12.90;99.90
10451;DHT22;5273;51.290;6.918;2023-09-30T02:16:26;12.90;99.90
10451;DHT22;5273;51.290;6.918;2023-09-30T02:18:52;13.00;99.90
10451;DHT22;5273;51.290;6.918;2023-09-30T02:21:19;13.00;99.90
10451;DHT22;5273;51.290;6.918;2023-09-30T02:23:47;13.00;99.90
10451;DHT22;5273;51.290;6.918;2023-09-30T02:26:14;13.00;99.90
10451;DHT22;5273;51.290;6.918;2023-09-30T02:28:41;13.00;99.90
10451;DHT22;5273;51.290;6.918;2023-09-30T02:31:09;12.90;99.90
10451;DHT22;5273;51.290;6.918;2023-09-30T02:33:36;12.80;99.90
10451;DHT22;5273;51.290;6.918;2023-09-30T02:36:07;12.80;99.90
10451;DHT22;5273;51.290;6.918;2023-09-30T02:38:34;12.70;99.90
10451;DHT22;5273;51.290;6.918;2023-09-30T02:41:02;12.70;99.90
10451;DHT22;5273;51.290;6.918;2023-09-30T02:43:29;13.20;99.90
10451;DHT22;5273;51.290;6.918;2023-09-30T02:45:56;12.60;99.90
10451;DHT22;5273;51.290;6.918;2023-09-30T02:48:24;12.50;99.90
10451;DHT22;5273;51.290;6.918;2023-09-30T02:50:51;12.60;99.90
10451;DHT22;5273;51.290;6.918;2023-09-30T02:53:17;12.60;99.90
10451;DHT22;5273;51.290;6.918;2023-09-30T02:55:44;12.70;99.90
10451;DHT22;5273;51.290;6.918;2023-09-30T02:58:11;12.60;99.90
10451;DHT22;5273;51.290;6.918;2023-09-30T03:00:39;12.60;99.90
10451;DHT22;5273;51.290;6.918;2023-09-30T03:03:06;12.60;99.90
10451;DHT22;5273;51.290;6.918;2023-09-30T03:05:35;12.70;99.90
10451;DHT22;5273;51.290;6.918;2023-09-30T03:08:04;12.70;99.90
10451;DHT22;5273;51.290;6.918;2023-09-30T03:10:31;12.70;99.90
10451;DHT22;5273;51.290;6.918;2023-09-30T03:12:58;12.70;99.90
10451;DHT22;5273;51.290;6.918;2023-09-30T03:15:27;12.70;99.90
10451;DHT22;5273;51.290;6.918;2023-09-30T03:17:56;12.70;99.90
10451;DHT22;5273;51.290;6.918;2023-09-30T03:20:23;12.70;99.90
10451;DHT22;5273;51.290;6.918;2023-09-30T03:22:52;12.80;99.90
10451;DHT22;5273;51.290;6.918;2023-09-30T03:25:20;12.60;99.90
10451;DHT22;5273;51.290;6.918;2023-09-30T03:27:48;12.60;99.90
10451;DHT22;5273;51.290;6.918;2023-09-30T03:30:16;12.50;99.90
10451;DHT22;5273;51.290;6.918;2023-09-30T03:32:45;12.50;99.90
10451;DHT22;5273;51.290;6.918;2023-09-30T03:35:12;12.40;99.90
10451;DHT22;5273;51.290;6.918;2023-09-30T03:37:42;12.20;99.90
10451;DHT22;5273;51.290;6.918;2023-09-30T03:40:11;12.30;99.90
10451;DHT22;5273;51.290;6.918;2023-09-30T03:42:40;12.20;99.90
10451;DHT22;5273;51.290;6.918;2023-09-30T03:45:08;12.20;99.90
10451;DHT22;5273;51.290;6.918;2023-09-30T03:47:35;12.10;99.90
10451;DHT22;5273;51.290;6.918;2023-09-30T03:50:03;12.10;99.90
10451;DHT22;5273;51.290;6.918;2023-09-30T03:52:30;12.00;99.90
10451;DHT22;5273;51.290;6.918;2023-09-30T03:54:59;11.90;99.90
10451;DHT22;5273;51.290;6.918;2023-09-30T03:57:30;12.00;99.90
10451;DHT22;5273;51.290;6.918;2023-09-30T03:59:57;12.00;99.90
10451;DHT22;5273;51.290;6.918;2023-09-30T04:02:24;12.00;99.90
10451;DHT22;5273;51.290;6.918;2023-09-30T04:04:50;12.00;99.90
10451;DHT22;5273;51.290;6.918;2023-09-30T04:07:19;12.10;99.90
10451;DHT22;5273;51.290;6.918;2023-09-30T04:09:47;12.10;99.90
10451;DHT22;5273;51.290;6.918;2023-09-30T04:12:14;12.40;99.90
10451;DHT22;5273;51.290;6.918;2023-09-30T04:14:43;12.20;99.90
10451;DHT22;5273;51.290;6.918;2023-09-30T04:17:10;12.10;99.90
10451;DHT22;5273;51.290;6.918;2023-09-30T04:19:37;12.10;99.90
10451;DHT22;5273;51.290;6.918;2023-09-30T04:22:04;12.10;99.90
10451;DHT22;5273;51.290;6.918;2023-09-30T04:24:31;12.00;99.90
10451;DHT22;5273;51.290;6.918;2023-09-30T04:26:58;12.00;99.90
10451;DHT22;5273;51.290;6.918;2023-09-30T04:29:28;12.00;99.90
10451;DHT22;5273;51.290;6.918;2023-09-30T04:31:57;11.90;99.90
10451;DHT22;5273;51.290;6.918;2023-09-30T04:34:24;11.90;99.90
10451;DHT22;5273;51.290;6.918;2023-09-30T04:36:53;11.90;99.90
10451;DHT22;5273;51.290;6.918;2023-09-30T04:39:19;11.90;99.90
10451;DHT22;5273;51.290;6.918;2023-09-30T04:41:46;11.80;99.90
10451;DHT22;5273;51.290;6.918;2023-09-30T04:44:13;11.80;99.90
10451;DHT22;5273;51.290;6.918;2023-09-30T04:46:40;11.80;99.90
10451;DHT22;5273;51.290;6.918;2023-09-30T04:49:13;12.30;99.90
10451;DHT22;5273;51.290;6.918;2023-09-30T04:51:40;11.80;99.90
10451;DHT22;5273;51.290;6.918;2023-09-30T04:54:07;11.80;99.90
10451;DHT22;5273;51.290;6.918;2023-09-30T04:56:36;11.80;99.90
10451;DHT22;5273;51.290;6.918;2023-09-30T04:59:04;11.70;99.90
10451;DHT22;5273;51.290;6.918;2023-09-30T05:01:31;11.90;99.90
10451;DHT22;5273;51.290;6.918;2023-09-30T05:03:57;11.90;99.90
10451;DHT22;5273;51.290;6.918;2023-09-30T05:06:26;11.90;99.90
10451;DHT22;5273;51.290;6.918;2023-09-30T05:08:52;11.80;99.90
10451;DHT22;5273;51.290;6.918;2023-09-30T05:11:20;11.90;99.90
10451;DHT22;5273;51.290;6.918;2023-09-30T05:13:47;11.90;99.90
10451;DHT22;5273;51.290;6.918;2023-09-30T05:16:14;11.90;99.90
10451;DHT22;5273;51.290;6.918;2023-09-30T05:18:42;11.80;99.90
10451;DHT22;5273;51.290;6.918;2023-09-30T05:21:08;11.80;99.90
10451;DHT22;5273;51.290;6.918;2023-09-30T05:23:37;11.70;99.90
10451;DHT22;5273;51.290;6.918;2023-09-30T05:26:04;11.70;99.90
10451;DHT22;5273;51.290;6.918;2023-09-30T05:28:32;11.60;99.90
10451;DHT22;5273;51.290;6.918;2023-09-30T05:31:00;11.60;99.90
10451;DHT22;5273;51.290;6.918;2023-09-30T05:33:27;11.70;99.90
10451;DHT22;5273;51.290;6.918;2023-09-30T05:35:53;11.60;99.90
10451;DHT22;5273;51.290;6.918;2023-09-30T05:38:21;11.50;99.90
10451;DHT22;5273;51.290;6.918;2023-09-30T05:40:50;11.50;99.90
10451;DHT22;5273;51.290;6.918;2023-09-30T05:43:17;11.40;99.90
10451;DHT22;5273;51.290;6.918;2023-09-30T05:45:44;11.40;99.90
10451;DHT22;5273;51.290;6.918;2023-09-30T05:48:15;11.20;99.90
10451;DHT22;5273;51.290;6.918;2023-09-30T05:50:42;11.50;99.90
10451;DHT22;5273;51.290;6.918;2023-09-30T05:53:09;11.50;99.90
10451;DHT22;5273;51.290;6.918;2023-09-30T05:55:37;11.50;99.90
10451;DHT22;5273;51.290;6.918;2023-09-30T05:58:06;11.60;99.90
10451;DHT22;5273;51.290;6.918;2023-09-30T06:00:32;11.60;99.90
10451;DHT22;5273;51.290;6.918;2023-09-30T06:03:01;11.70;99.90
10451;DHT22;5273;51.290;6.918;2023-09-30T06:05:29;11.70;99.90
10451;DHT22;5273;51.290;6.918;2023-09-30T06:07:58;11.80;99.90
10451;DHT22;5273;51.290;6.918;2023-09-30T06:10:25;11.90;99.90
10451;DHT22;5273;51.290;6.918;2023-09-30T06:12:53;12.00;99.90
10451;DHT22;5273;51.290;6.918;2023-09-30T06:15:23;12.40;99.90
10451;DHT22;5273;51.290;6.918;2023-09-30T06:17:51;12.60;99.90
10451;DHT22;5273;51.290;6.918;2023-09-30T06:20:19;13.20;99.90
10451;DHT22;5273;51.290;6.918;2023-09-30T06:22:48;13.80;99.90
10451;DHT22;5273;51.290;6.918;2023-09-30T06:25:16;14.60;99.90
10451;DHT22;5273;51.290;6.918;2023-09-30T06:27:43;15.40;99.90
10451;DHT22;5273;51.290;6.918;2023-09-30T06:30:11;16.00;99.90
10451;DHT22;5273;51.290;6.918;2023-09-30T06:32:40;16.70;99.90
10451;DHT22;5273;51.290;6.918;2023-09-30T06:35:08;17.40;99.90
10451;DHT22;5273;51.290;6.918;2023-09-30T06:37:36;18.00;99.90
10451;DHT22;5273;51.290;6.918;2023-09-30T06:40:03;18.70;99.90
10451;DHT22;5273;51.290;6.918;2023-09-30T06:42:33;19.20;99.90
10451;DHT22;5273;51.290;6.918;2023-09-30T06:45:00;19.70;99.50
10451;DHT22;5273;51.290;6.918;2023-09-30T06:47:26;20.20;98.30
10451;DHT22;5273;51.290;6.918;2023-09-30T06:49:55;20.70;97.40
10451;DHT22;5273;51.290;6.918;2023-09-30T06:52:22;21.30;95.80
10451;DHT22;5273;51.290;6.918;2023-09-30T06:54:49;21.60;94.90
10451;DHT22;5273;51.290;6.918;2023-09-30T06:57:17;22.00;93.70
10451;DHT22;5273;51.290;6.918;2023-09-30T06:59:44;22.50;93.30
10451;DHT22;5273;51.290;6.918;2023-09-30T07:02:11;22.80;92.40
10451;DHT22;5273;51.290;6.918;2023-09-30T07:04:38;23.20;91.50
10451;DHT22;5273;51.290;6.918;2023-09-30T07:07:06;23.70;90.90
10451;DHT22;5273;51.290;6.918;2023-09-30T07:09:33;24.00;90.00
10451;DHT22;5273;51.290;6.918;2023-09-30T07:11:59;24.60;88.90
10451;DHT22;5273;51.290;6.918;2023-09-30T07:14:26;25.10;86.20
10451;DHT22;5273;51.290;6.918;2023-09-30T07:16:53;25.50;84.30
10451;DHT22;5273;51.290;6.918;2023-09-30T07:19:20;25.80;82.50
10451;DHT22;5273;51.290;6.918;2023-09-30T07:21:47;26.20;80.70
10451;DHT22;5273;51.290;6.918;2023-09-30T07:24:15;26.60;78.20
10451;DHT22;5273;51.290;6.918;2023-09-30T07:26:42;27.20;75.80
10451;DHT22;5273;51.290;6.918;2023-09-30T07:29:09;27.50;74.60
10451;DHT22;5273;51.290;6.918;2023-09-30T07:31:36;27.90;71.80
10451;DHT22;5273;51.290;6.918;2023-09-30T07:34:02;28.10;71.70
10451;DHT22;5273;51.290;6.918;2023-09-30T07:36:29;28.40;71.70
10451;DHT22;5273;51.290;6.918;2023-09-30T07:38:57;28.70;68.40
10451;DHT22;5273;51.290;6.918;2023-09-30T07:41:27;29.00;67.80
10451;DHT22;5273;51.290;6.918;2023-09-30T07:43:54;29.20;66.90
10451;DHT22;5273;51.290;6.918;2023-09-30T07:46:21;29.40;65.40
10451;DHT22;5273;51.290;6.918;2023-09-30T07:48:48;29.20;64.20
10451;DHT22;5273;51.290;6.918;2023-09-30T07:51:15;29.00;65.10
10451;DHT22;5273;51.290;6.918;2023-09-30T07:53:42;29.10;65.20
10451;DHT22;5273;51.290;6.918;2023-09-30T07:56:08;29.40;64.50
10451;DHT22;5273;51.290;6.918;2023-09-30T07:58:37;29.70;62.90
10451;DHT22;5273;51.290;6.918;2023-09-30T08:01:03;30.10;61.80
10451;DHT22;5273;51.290;6.918;2023-09-30T08:03:30;30.40;59.60
10451;DHT22;5273;51.290;6.918;2023-09-30T08:05:57;30.80;60.20
10451;DHT22;5273;51.290;6.918;2023-09-30T08:08:24;31.40;59.70
10451;DHT22;5273;51.290;6.918;2023-09-30T08:10:51;31.90;58.20
10451;DHT22;5273;51.290;6.918;2023-09-30T08:13:21;32.20;56.30
10451;DHT22;5273;51.290;6.918;2023-09-30T08:15:49;32.10;56.00
10451;DHT22;5273;51.290;6.918;2023-09-30T08:18:17;32.30;55.70
10451;DHT22;5273;51.290;6.918;2023-09-30T08:20:44;32.50;54.70
10451;DHT22;5273;51.290;6.918;2023-09-30T08:23:11;32.70;53.70
10451;DHT22;5273;51.290;6.918;2023-09-30T08:25:38;32.60;53.50
10451;DHT22;5273;51.290;6.918;2023-09-30T08:28:05;32.60;53.30
10451;DHT22;5273;51.290;6.918;2023-09-30T08:30:32;32.60;53.10
10451;DHT22;5273;51.290;6.918;2023-09-30T08:33:01;32.60;52.60
10451;DHT22;5273;51.290;6.918;2023-09-30T08:35:29;32.60;52.70
10451;DHT22;5273;51.290;6.918;2023-09-30T08:37:57;32.60;51.10
10451;DHT22;5273;51.290;6.918;2023-09-30T08:40:24;32.30;52.80
10451;DHT22;5273;51.290;6.918;2023-09-30T08:42:52;31.80;53.20
10451;DHT22;5273;51.290;6.918;2023-09-30T08:45:19;31.70;53.70
10451;DHT22;5273;51.290;6.918;2023-09-30T08:47:46;32.00;53.70
10451;DHT22;5273;51.290;6.918;2023-09-30T08:50:16;32.50;52.70
10451;DHT22;5273;51.290;6.918;2023-09-30T08:52:44;32.90;52.00
10451;DHT22;5273;51.290;6.918;2023-09-30T08:55:11;33.30;50.90
10451;DHT22;5273;51.290;6.918;2023-09-30T08:57:40;33.70;50.30
10451;DHT22;5273;51.290;6.918;2023-09-30T09:00:09;34.00;50.10
10451;DHT22;5273;51.290;6.918;2023-09-30T09:02:38;34.20;49.40
10451;DHT22;5273;51.290;6.918;2023-09-30T09:05:06;34.40;49.50
10451;DHT22;5273;51.290;6.918;2023-09-30T09:07:35;34.80;47.70
10451;DHT22;5273;51.290;6.918;2023-09-30T09:10:05;34.80;46.50
10451;DHT22;5273;51.290;6.918;2023-09-30T09:12:34;34.90;47.50
10451;DHT22;5273;51.290;6.918;2023-09-30T09:15:02;34.50;47.60
10451;DHT22;5273;51.290;6.918;2023-09-30T09:17:41;34.70;46.90
10451;DHT22;5273;51.290;6.918;2023-09-30T09:20:09;34.80;46.50
10451;DHT22;5273;51.290;6.918;2023-09-30T09:22:40;34.70;46.50
10451;DHT22;5273;51.290;6.918;2023-09-30T09:25:07;34.70;45.70
10451;DHT22;5273;51.290;6.918;2023-09-30T09:27:34;34.80;45.80
10451;DHT22;5273;51.290;6.918;2023-09-30T09:30:15;34.90;46.10
10451;DHT22;5273;51.290;6.918;2023-09-30T09:32:58;35.30;45.50
10451;DHT22;5273;51.290;6.918;2023-09-30T09:35:25;35.70;43.80
10451;DHT22;5273;51.290;6.918;2023-09-30T09:37:56;35.90;43.90
10451;DHT22;5273;51.290;6.918;2023-09-30T09:40:24;36.20;43.40
10451;DHT22;5273;51.290;6.918;2023-09-30T09:42:52;36.20;42.10
10451;DHT22;5273;51.290;6.918;2023-09-30T09:45:21;36.10;43.90
10451;DHT22;5273;51.290;6.918;2023-09-30T09:47:49;36.00;42.20
10451;DHT22;5273;51.290;6.918;2023-09-30T09:50:17;36.00;42.60
10451;DHT22;5273;51.290;6.918;2023-09-30T09:52:47;36.20;41.50
10451;DHT22;5273;51.290;6.918;2023-09-30T09:55:18;36.40;40.80
10451;DHT22;5273;51.290;6.918;2023-09-30T09:57:45;36.40;41.90
10451;DHT22;5273;51.290;6.918;2023-09-30T10:00:14;36.70;41.10
10451;DHT22;5273;51.290;6.918;2023-09-30T10:02:42;37.10;40.50
10451;DHT22;5273;51.290;6.918;2023-09-30T10:05:09;37.40;38.80
10451;DHT22;5273;51.290;6.918;2023-09-30T10:07:39;37.50;38.20
10451;DHT22;5273;51.290;6.918;2023-09-30T10:10:12;37.30;38.10
10451;DHT22;5273;51.290;6.918;2023-09-30T10:12:42;37.20;39.20
10451;DHT22;5273;51.290;6.918;2023-09-30T10:15:37;36.80;38.70
10451;DHT22;5273;51.290;6.918;2023-09-30T10:18:06;35.80;39.70
10451;DHT22;5273;51.290;6.918;2023-09-30T10:20:34;35.40;40.90
10451;DHT22;5273;51.290;6.918;2023-09-30T10:23:20;34.60;40.90
10451;DHT22;5273;51.290;6.918;2023-09-30T10:25:47;34.00;42.90
10451;DHT22;5273;51.290;6.918;2023-09-30T10:28:36;33.40;42.90
10451;DHT22;5273;51.290;6.918;2023-09-30T10:31:13;33.20;44.10
10451;DHT22;5273;51.290;6.918;2023-09-30T10:34:21;32.90;44.10
10451;DHT22;5273;51.290;6.918;2023-09-30T10:36:48;32.70;43.90
10451;DHT22;5273;51.290;6.918;2023-09-30T10:39:55;32.60;45.30
10451;DHT22;5273;51.290;6.918;2023-09-30T10:42:48;32.50;44.20
10451;DHT22;5273;51.290;6.918;2023-09-30T10:45:45;32.30;44.70
10451;DHT22;5273;51.290;6.918;2023-09-30T10:48:33;32.20;45.40
10451;DHT22;5273;51.290;6.918;2023-09-30T10:51:10;31.80;45.10
10451;DHT22;5273;51.290;6.918;2023-09-30T10:53:45;31.60;46.40
10451;DHT22;5273;51.290;6.918;2023-09-30T10:56:12;31.50;45.50
10451;DHT22;5273;51.290;6.918;2023-09-30T10:58:43;31.20;46.50
10451;DHT22;5273;51.290;6.918;2023-09-30T11:01:12;30.60;46.90
10451;DHT22;5273;51.290;6.918;2023-09-30T11:03:40;30.00;48.20
10451;DHT22;5273;51.290;6.918;2023-09-30T11:06:07;29.50;49.20
10451;DHT22;5273;51.290;6.918;2023-09-30T11:08:35;29.20;48.20
10451;DHT22;5273;51.290;6.918;2023-09-30T11:11:03;29.00;48.20
10451;DHT22;5273;51.290;6.918;2023-09-30T11:13:33;29.00;49.20
10451;DHT22;5273;51.290;6.918;2023-09-30T11:16:02;28.80;49.40
10451;DHT22;5273;51.290;6.918;2023-09-30T11:18:32;28.90;48.30
10451;DHT22;5273;51.290;6.918;2023-09-30T11:21:07;28.70;49.00
10451;DHT22;5273;51.290;6.918;2023-09-30T11:23:35;28.60;49.90
10451;DHT22;5273;51.290;6.918;2023-09-30T11:26:02;28.40;50.00
10451;DHT22;5273;51.290;6.918;2023-09-30T11:28:37;28.40;50.60
10451;DHT22;5273;51.290;6.918;2023-09-30T11:31:08;28.40;50.90
10451;DHT22;5273;51.290;6.918;2023-09-30T11:33:49;28.30;50.10
10451;DHT22;5273;51.290;6.918;2023-09-30T11:36:18;28.20;50.80
10451;DHT22;5273;51.290;6.918;2023-09-30T11:38:46;28.20;48.10
10451;DHT22;5273;51.290;6.918;2023-09-30T11:41:13;28.10;48.20
10451;DHT22;5273;51.290;6.918;2023-09-30T11:43:58;27.80;49.10
10451;DHT22;5273;51.290;6.918;2023-09-30T11:46:25;27.60;49.70
10451;DHT22;5273;51.290;6.918;2023-09-30T11:48:59;27.10;51.60
10451;DHT22;5273;51.290;6.918;2023-09-30T11:51:26;26.80;51.80
10451;DHT22;5273;51.290;6.918;2023-09-30T11:53:54;26.50;52.00
10451;DHT22;5273;51.290;6.918;2023-09-30T11:56:22;26.40;51.30
10451;DHT22;5273;51.290;6.918;2023-09-30T11:58:53;26.30;51.40
10451;DHT22;5273;51.290;6.918;2023-09-30T12:01:20;26.30;51.80
10451;DHT22;5273;51.290;6.918;2023-09-30T12:03:47;26.40;53.10
10451;DHT22;5273;51.290;6.918;2023-09-30T12:06:15;26.30;52.80
10451;DHT22;5273;51.290;6.918;2023-09-30T12:08:42;26.40;52.90
10451;DHT22;5273;51.290;6.918;2023-09-30T12:11:10;26.40;52.60
10451;DHT22;5273;51.290;6.918;2023-09-30T12:13:38;26.50;52.30
10451;DHT22;5273;51.290;6.918;2023-09-30T12:16:05;26.40;51.30
10451;DHT22;5273;51.290;6.918;2023-09-30T12:18:32;26.20;54.60
10451;DHT22;5273;51.290;6.918;2023-09-30T12:20:59;26.10;54.70
10451;DHT22;5273;51.290;6.918;2023-09-30T12:23:27;26.10;54.90
10451;DHT22;5273;51.290;6.918;2023-09-30T12:25:54;26.10;55.00
10451;DHT22;5273;51.290;6.918;2023-09-30T12:28:21;26.10;54.00
10451;DHT22;5273;51.290;6.918;2023-09-30T12:30:48;26.10;52.40
10451;DHT22;5273;51.290;6.918;2023-09-30T12:33:14;25.80;53.80
10451;DHT22;5273;51.290;6.918;2023-09-30T12:35:41;25.60;53.30
10451;DHT22;5273;51.290;6.918;2023-09-30T12:38:08;25.70;54.50
10451;DHT22;5273;51.290;6.918;2023-09-30T12:40:37;25.60;54.20
10451;DHT22;5273;51.290;6.918;2023-09-30T12:43:04;25.60;54.20
10451;DHT22;5273;51.290;6.918;2023-09-30T12:45:32;25.60;54.20
10451;DHT22;5273;51.290;6.918;2023-09-30T12:47:59;25.60;53.40
10451;DHT22;5273;51.290;6.918;2023-09-30T12:50:25;25.70;53.40
10451;DHT22;5273;51.290;6.918;2023-09-30T12:52:52;25.50;55.00
10451;DHT22;5273;51.290;6.918;2023-09-30T12:55:19;25.70;56.10
10451;DHT22;5273;51.290;6.918;2023-09-30T12:57:47;25.70;56.70
10451;DHT22;5273;51.290;6.918;2023-09-30T13:00:16;25.80;57.70
10451;DHT22;5273;51.290;6.918;2023-09-30T13:02:44;25.70;55.80
10451;DHT22;5273;51.290;6.918;2023-09-30T13:05:11;25.40;58.20
10451;DHT22;5273;51.290;6.918;2023-09-30T13:07:38;25.10;57.00
10451;DHT22;5273;51.290;6.918;2023-09-30T13:10:06;25.00;57.50
10451;DHT22;5273;51.290;6.918;2023-09-30T13:12:33;25.10;58.30
10451;DHT22;5273;51.290;6.918;2023-09-30T13:15:02;24.90;57.10
10451;DHT22;5273;51.290;6.918;2023-09-30T13:17:29;24.70;56.90
10451;DHT22;5273;51.290;6.918;2023-09-30T13:19:55;24.70;58.00
10451;DHT22;5273;51.290;6.918;2023-09-30T13:22:22;24.50;58.10
10451;DHT22;5273;51.290;6.918;2023-09-30T13:24:49;24.40;57.90
10451;DHT22;5273;51.290;6.918;2023-09-30T13:27:16;24.40;58.00
10451;DHT22;5273;51.290;6.918;2023-09-30T13:29:44;24.40;58.30
10451;DHT22;5273;51.290;6.918;2023-09-30T13:32:13;24.40;59.10
10451;DHT22;5273;51.290;6.918;2023-09-30T13:34:39;24.40;59.30
10451;DHT22;5273;51.290;6.918;2023-09-30T13:37:06;24.30;59.30
10451;DHT22;5273;51.290;6.918;2023-09-30T13:39:33;24.40;59.90
10451;DHT22;5273;51.290;6.918;2023-09-30T13:42:00;24.30;60.20
10451;DHT22;5273;51.290;6.918;2023-09-30T13:44:27;24.30;59.30
10451;DHT22;5273;51.290;6.918;2023-09-30T13:46:54;24.30;60.30
10451;DHT22;5273;51.290;6.918;2023-09-30T13:49:22;24.10;62.30
10451;DHT22;5273;51.290;6.918;2023-09-30T13:51:49;24.20;62.20
10451;DHT22;5273;51.290;6.918;2023-09-30T13:54:16;24.20;61.80
10451;DHT22;5273;51.290;6.918;2023-09-30T13:56:42;24.10;60.40
10451;DHT22;5273;51.290;6.918;2023-09-30T13:59:10;24.10;60.10
10451;DHT22;5273;51.290;6.918;2023-09-30T14:01:37;24.20;60.30
10451;DHT22;5273;51.290;6.918;2023-09-30T14:04:06;23.90;61.10
10451;DHT22;5273;51.290;6.918;2023-09-30T14:06:35;24.00;61.40
10451;DHT22;5273;51.290;6.918;2023-09-30T14:09:02;23.90;61.90
10451;DHT22;5273;51.290;6.918;2023-09-30T14:11:29;23.90;61.90
10451;DHT22;5273;51.290;6.918;2023-09-30T14:13:56;23.70;60.90
10451;DHT22;5273;51.290;6.918;2023-09-30T14:16:23;23.60;61.10
10451;DHT22;5273;51.290;6.918;2023-09-30T14:18:49;23.70;61.60
10451;DHT22;5273;51.290;6.918;2023-09-30T14:21:16;23.50;62.40
10451;DHT22;5273;51.290;6.918;2023-09-30T14:23:45;23.30;62.60
10451;DHT22;5273;51.290;6.918;2023-09-30T14:26:12;23.30;63.70
10451;DHT22;5273;51.290;6.918;2023-09-30T14:28:38;23.00;64.70
10451;DHT22;5273;51.290;6.918;2023-09-30T14:31:05;23.00;65.30
10451;DHT22;5273;51.290;6.918;2023-09-30T14:33:32;23.10;65.30
10451;DHT22;5273;51.290;6.918;2023-09-30T14:35:59;23.00;64.60
10451;DHT22;5273;51.290;6.918;2023-09-30T14:38:26;23.00;64.10
10451;DHT22;5273;51.290;6.918;2023-09-30T14:40:54;22.90;64.10
10451;DHT22;5273;51.290;6.918;2023-09-30T14:43:21;22.70;63.60
10451;DHT22;5273;51.290;6.918;2023-09-30T14:45:48;22.70;63.30
10451;DHT22;5273;51.290;6.918;2023-09-30T14:48:15;22.80;64.40
10451;DHT22;5273;51.290;6.918;2023-09-30T14:50:48;22.70;64.60
10451;DHT22;5273;51.290;6.918;2023-09-30T14:53:16;22.50;65.70
10451;DHT22;5273;51.290;6.918;2023-09-30T14:55:44;22.50;66.80
10451;DHT22;5273;51.290;6.918;2023-09-30T14:58:12;22.50;66.20
10451;DHT22;5273;51.290;6.918;2023-09-30T15:00:39;22.40;66.90
10451;DHT22;5273;51.290;6.918;2023-09-30T15:03:06;22.40;67.20
10451;DHT22;5273;51.290;6.918;2023-09-30T15:05:32;22.30;67.70
10451;DHT22;5273;51.290;6.918;2023-09-30T15:07:59;22.30;69.00
10451;DHT22;5273;51.290;6.918;2023-09-30T15:10:28;22.30;69.00
10451;DHT22;5273;51.290;6.918;2023-09-30T15:12:55;22.20;68.80
10451;DHT22;5273;51.290;6.918;2023-09-30T15:15:25;22.10;69.10
10451;DHT22;5273;51.290;6.918;2023-09-30T15:17:51;22.10;70.60
10451;DHT22;5273;51.290;6.918;2023-09-30T15:20:20;22.20;69.60
10451;DHT22;5273;51.290;6.918;2023-09-30T15:22:47;22.20;68.30
10451;DHT22;5273;51.290;6.918;2023-09-30T15:25:13;22.20;68.90
10451;DHT22;5273;51.290;6.918;2023-09-30T15:27:42;22.20;69.10
10451;DHT22;5273;51.290;6.918;2023-09-30T15:30:10;22.20;68.90
10451;DHT22;5273;51.290;6.918;2023-09-30T15:32:40;22.20;68.00
10451;DHT22;5273;51.290;6.918;2023-09-30T15:35:08;22.10;68.50
10451;DHT22;5273;51.290;6.918;2023-09-30T15:37:35;22.10;67.90
10451;DHT22;5273;51.290;6.918;2023-09-30T15:40:02;22.20;68.50
10451;DHT22;5273;51.290;6.918;2023-09-30T15:42:28;22.10;67.90
10451;DHT22;5273;51.290;6.918;2023-09-30T15:44:55;22.10;68.60
10451;DHT22;5273;51.290;6.918;2023-09-30T15:47:23;22.00;69.80
10451;DHT22;5273;51.290;6.918;2023-09-30T15:49:51;22.00;67.80
10451;DHT22;5273;51.290;6.918;2023-09-30T15:52:18;21.90;67.60